sensor_id;sensor_type;location;lat;lon;timestamp;pressure;altitude;pressure_sealevel;temperature;humidity
7058;BME280;3570;43.080;25.628;2023-10-08T00:01:47;-19871.38;;;14.36;89.88
7058;BME280;3570;43.080;25.628;2023-10-08T00:04:34;-19865.84;;;14.17;90.95
7058;BME280;3570;43.080;25.628;2023-10-08T00:07:21;-19868.16;;;14.25;91.75
7058;BME280;3570;43.080;25.628;2023-10-08T00:10:05;-19866.56;;;14.19;90.65
7058;BME280;3570;43.080;25.628;2023-10-08T00:12:49;-19868.91;;;14.28;88.49
7058;BME280;3570;43.080;25.628;2023-10-08T00:15:39;-19856.94;;;13.86;91.52
7058;BME280;3570;43.080;25.628;2023-10-08T00:18:26;-19838.44;;;13.23;96.23
7058;BME280;3570;43.080;25.628;2023-10-08T00:21:12;-19832.91;;;13.03;99.92
7058;BME280;3570;43.080;25.628;2023-10-08T00:23:56;-19845.28;;;13.46;97.57
7058;BME280;3570;43.080;25.628;2023-10-08T00:26:43;-19857.53;;;13.88;93.91
7058;BME280;3570;43.080;25.628;2023-10-08T00:29:28;-19861.63;;;14.02;92.40
7058;BME280;3570;43.080;25.628;2023-10-08T00:32:15;-19861.47;;;14.02;92.09
7058;BME280;3570;43.080;25.628;2023-10-08T00:35:00;-19863.22;;;14.08;91.79
7058;BME280;3570;43.080;25.628;2023-10-08T00:37:44;-19854.03;;;13.76;93.24
7058;BME280;3570;43.080;25.628;2023-10-08T00:40:38;-19855.78;;;13.82;92.62
7058;BME280;3570;43.080;25.628;2023-10-08T00:43:33;-19860.31;;;13.98;91.66
7058;BME280;3570;43.080;25.628;2023-10-08T00:46:19;-19865.53;;;14.16;90.84
7058;BME280;3570;43.080;25.628;2023-10-08T00:49:03;-19856.09;;;13.83;91.77
7058;BME280;3570;43.080;25.628;2023-10-08T00:52:08;-19862.50;;;14.05;92.01
7058;BME280;3570;43.080;25.628;2023-10-08T00:54:52;-19866.44;;;14.19;90.51
7058;BME280;3570;43.080;25.628;2023-10-08T00:57:52;-19869.63;;;14.30;89.83
7058;BME280;3570;43.080;25.628;2023-10-08T01:00:41;-19868.16;;;14.25;89.79
7058;BME280;3570;43.080;25.628;2023-10-08T01:03:27;-19865.25;;;14.15;90.03
7058;BME280;3570;43.080;25.628;2023-10-08T01:06:11;-19867.16;;;14.22;89.69
7058;BME280;3570;43.080;25.628;2023-10-08T01:08:55;-19866.28;;;14.18;89.75
7058;BME280;3570;43.080;25.628;2023-10-08T01:11:41;-19860.16;;;13.97;89.67
7058;BME280;3570;43.080;25.628;2023-10-08T01:14:33;-19849.38;;;13.60;91.58
7058;BME280;3570;43.080;25.628;2023-10-08T01:17:17;-19858.56;;;13.92;90.95
7058;BME280;3570;43.080;25.628;2023-10-08T01:20:04;-19844.84;;;13.45;90.57
7058;BME280;3570;43.080;25.628;2023-10-08T01:23:06;-19846.59;;;13.51;95.44
7058;BME280;3570;43.080;25.628;2023-10-08T01:25:54;-19845.88;;;13.48;93.52
7058;BME280;3570;43.080;25.628;2023-10-08T01:28:56;-19841.94;;;13.35;92.28
7058;BME280;3570;43.080;25.628;2023-10-08T01:31:40;-19839.16;;;13.25;95.18
7058;BME280;3570;43.080;25.628;2023-10-08T01:34:24;-19845.28;;;13.46;96.62
7058;BME280;3570;43.080;25.628;2023-10-08T01:37:15;-19845.28;;;13.46;95.12
7058;BME280;3570;43.080;25.628;2023-10-08T01:40:03;-19846.16;;;13.49;94.42
7058;BME280;3570;43.080;25.628;2023-10-08T01:42:51;-19843.84;;;13.41;94.30
7058;BME280;3570;43.080;25.628;2023-10-08T01:45:37;-19850.25;;;13.63;93.14
7058;BME280;3570;43.080;25.628;2023-10-08T01:48:24;-19850.41;;;13.64;94.02
7058;BME280;3570;43.080;25.628;2023-10-08T01:51:13;-19850.25;;;13.63;92.50
7058;BME280;3570;43.080;25.628;2023-10-08T01:54:08;-19850.69;;;13.65;93.48
7058;BME280;3570;43.080;25.628;2023-10-08T01:56:55;-19848.50;;;13.57;93.50
7058;BME280;3570;43.080;25.628;2023-10-08T01:59:39;-19840.34;;;13.29;94.38
7058;BME280;3570;43.080;25.628;2023-10-08T02:02:23;-19818.91;;;12.55;98.32
7058;BME280;3570;43.080;25.628;2023-10-08T02:05:07;-19831.88;;;13.00;96.45
7058;BME280;3570;43.080;25.628;2023-10-08T02:07:52;-19839.31;;;13.26;96.73
7058;BME280;3570;43.080;25.628;2023-10-08T02:10:39;-19849.97;;;13.62;94.85
7058;BME280;3570;43.080;25.628;2023-10-08T02:13:24;-19846.75;;;13.51;92.72
7058;BME280;3570;43.080;25.628;2023-10-08T02:16:09;-19849.38;;;13.60;92.62
7058;BME280;3570;43.080;25.628;2023-10-08T02:18:53;-19851.13;;;13.66;92.37
7058;BME280;3570;43.080;25.628;2023-10-08T02:21:39;-19843.09;;;13.39;92.79
7058;BME280;3570;43.080;25.628;2023-10-08T02:24:24;-19846.47;;;13.50;94.28
7058;BME280;3570;43.080;25.628;2023-10-08T02:27:08;-19844.28;;;13.43;93.88
7058;BME280;3570;43.080;25.628;2023-10-08T02:29:54;-19846.31;;;13.50;93.05
7058;BME280;3570;43.080;25.628;2023-10-08T02:32:38;-19838.44;;;13.23;92.86
7058;BME280;3570;43.080;25.628;2023-10-08T02:35:26;-19841.06;;;13.32;94.50
7058;BME280;3570;43.080;25.628;2023-10-08T02:38:11;-19840.06;;;13.28;93.15
7058;BME280;3570;43.080;25.628;2023-10-08T02:41:02;-19842.81;;;13.38;93.15
7058;BME280;3570;43.080;25.628;2023-10-08T02:43:50;-19845.88;;;13.48;92.44
7058;BME280;3570;43.080;25.628;2023-10-08T02:46:34;-19847.63;;;13.54;93.10
7058;BME280;3570;43.080;25.628;2023-10-08T02:49:21;-19845.16;;;13.46;92.28
7058;BME280;3570;43.080;25.628;2023-10-08T02:52:09;-19839.16;;;13.25;93.52
7058;BME280;3570;43.080;25.628;2023-10-08T02:54:53;-19843.25;;;13.39;94.34
7058;BME280;3570;43.080;25.628;2023-10-08T02:57:37;-19842.38;;;13.36;94.27
7058;BME280;3570;43.080;25.628;2023-10-08T03:00:22;-19848.06;;;13.56;92.69
7058;BME280;3570;43.080;25.628;2023-10-08T03:03:14;-19845.28;;;13.46;92.28
7058;BME280;3570;43.080;25.628;2023-10-08T03:06:01;-19821.66;;;12.65;93.93
7058;BME280;3570;43.080;25.628;2023-10-08T03:08:47;-19800.09;;;11.90;100.00
7058;BME280;3570;43.080;25.628;2023-10-08T03:11:31;-19795.41;;;11.74;100.00
7058;BME280;3570;43.080;25.628;2023-10-08T03:14:17;-19790.00;;;11.56;100.00
7058;BME280;3570;43.080;25.628;2023-10-08T03:17:07;-19800.22;;;11.91;100.00
7058;BME280;3570;43.080;25.628;2023-10-08T03:19:51;-19805.03;;;12.07;100.00
7058;BME280;3570;43.080;25.628;2023-10-08T03:22:36;-19804.31;;;12.05;100.00
7058;BME280;3570;43.080;25.628;2023-10-08T03:25:21;-19807.09;;;12.14;100.00
7058;BME280;3570;43.080;25.628;2023-10-08T03:28:11;-19808.69;;;12.20;100.00
7058;BME280;3570;43.080;25.628;2023-10-08T03:31:00;-19819.34;;;12.57;100.00
7058;BME280;3570;43.080;25.628;2023-10-08T03:33:57;-19832.75;;;13.03;100.00
7058;BME280;3570;43.080;25.628;2023-10-08T03:36:42;-19832.75;;;13.03;100.00
7058;BME280;3570;43.080;25.628;2023-10-08T03:39:29;-19820.94;;;12.62;100.00
7058;BME280;3570;43.080;25.628;2023-10-08T03:42:33;-19829.25;;;12.91;100.00
7058;BME280;3570;43.080;25.628;2023-10-08T03:45:18;-19823.41;;;12.71;100.00
7058;BME280;3570;43.080;25.628;2023-10-08T03:48:21;-19823.72;;;12.72;100.00
7058;BME280;3570;43.080;25.628;2023-10-08T03:51:05;-19826.47;;;12.81;100.00
7058;BME280;3570;43.080;25.628;2023-10-08T03:53:55;-19829.97;;;12.93;100.00
7058;BME280;3570;43.080;25.628;2023-10-08T03:56:44;-19837.88;;;13.20;98.64
7058;BME280;3570;43.080;25.628;2023-10-08T03:59:32;-19838.31;;;13.22;97.27
7058;BME280;3570;43.080;25.628;2023-10-08T04:02:17;-19819.91;;;12.59;98.02
7058;BME280;3570;43.080;25.628;2023-10-08T04:05:28;-19812.63;;;12.34;100.00
7058;BME280;3570;43.080;25.628;2023-10-08T04:08:17;-19819.91;;;12.59;100.00
7058;BME280;3570;43.080;25.628;2023-10-08T04:11:02;-19835.22;;;13.11;100.00
7058;BME280;3570;43.080;25.628;2023-10-08T04:14:06;-19840.06;;;13.28;96.88
7058;BME280;3570;43.080;25.628;2023-10-08T04:16:51;-19829.69;;;12.92;96.81
7058;BME280;3570;43.080;25.628;2023-10-08T04:19:35;-19832.75;;;13.03;96.90
7058;BME280;3570;43.080;25.628;2023-10-08T04:22:19;-19844.56;;;13.44;95.70
7058;BME280;3570;43.080;25.628;2023-10-08T04:25:03;-19843.53;;;13.40;95.03
7058;BME280;3570;43.080;25.628;2023-10-08T04:27:49;-19830.13;;;12.94;97.80
7058;BME280;3570;43.080;25.628;2023-10-08T04:30:34;-19823.41;;;12.71;98.01
7058;BME280;3570;43.080;25.628;2023-10-08T04:33:19;-19823.72;;;12.72;100.00
7058;BME280;3570;43.080;25.628;2023-10-08T04:36:03;-19818.19;;;12.53;100.00
7058;BME280;3570;43.080;25.628;2023-10-08T04:38:48;-19819.34;;;12.57;100.00
7058;BME280;3570;43.080;25.628;2023-10-08T04:41:32;-19812.34;;;12.32;100.00
7058;BME280;3570;43.080;25.628;2023-10-08T04:44:17;-19830.13;;;12.94;100.00
7058;BME280;3570;43.080;25.628;2023-10-08T04:47:01;-19839.31;;;13.26;98.36
7058;BME280;3570;43.080;25.628;2023-10-08T04:49:48;-19840.06;;;13.28;96.11
7058;BME280;3570;43.080;25.628;2023-10-08T04:52:32;-19852.00;;;13.69;93.71
7058;BME280;3570;43.080;25.628;2023-10-08T04:55:18;-19853.59;;;13.75;93.70
7058;BME280;3570;43.080;25.628;2023-10-08T04:58:12;-19851.41;;;13.67;92.67
7058;BME280;3570;43.080;25.628;2023-10-08T05:01:05;-19856.09;;;13.83;91.92
7058;BME280;3570;43.080;25.628;2023-10-08T05:04:01;-19858.13;;;13.90;92.24
7058;BME280;3570;43.080;25.628;2023-10-08T05:06:45;-19865.41;;;14.15;90.70
7058;BME280;3570;43.080;25.628;2023-10-08T05:09:29;-19865.09;;;14.14;89.49
7058;BME280;3570;43.080;25.628;2023-10-08T05:12:32;-19862.19;;;14.04;90.46
7058;BME280;3570;43.080;25.628;2023-10-08T05:15:16;-19868.75;;;14.27;88.53
7058;BME280;3570;43.080;25.628;2023-10-08T05:18:00;-19866.84;;;14.21;88.13
7058;BME280;3570;43.080;25.628;2023-10-08T05:21:02;-19871.22;;;14.36;89.01
7058;BME280;3570;43.080;25.628;2023-10-08T05:23:58;-19874.44;;;14.47;86.70
7058;BME280;3570;43.080;25.628;2023-10-08T05:27:09;-19879.97;;;14.66;86.52
7058;BME280;3570;43.080;25.628;2023-10-08T05:30:13;-19884.91;;;14.83;84.43
7058;BME280;3570;43.080;25.628;2023-10-08T05:33:09;-19891.19;;;15.04;84.59
7058;BME280;3570;43.080;25.628;2023-10-08T05:36:07;-19899.19;;;15.32;83.93
7058;BME280;3570;43.080;25.628;2023-10-08T05:39:02;-19894.53;;;15.16;79.61
7058;BME280;3570;43.080;25.628;2023-10-08T05:42:09;-19885.66;;;14.85;84.26
7058;BME280;3570;43.080;25.628;2023-10-08T05:45:12;-19900.34;;;15.36;80.80
7058;BME280;3570;43.080;25.628;2023-10-08T05:47:56;-19902.69;;;15.44;80.06
7058;BME280;3570;43.080;25.628;2023-10-08T05:51:06;-19913.16;;;15.80;75.82
7058;BME280;3570;43.080;25.628;2023-10-08T05:53:57;-19922.03;;;16.11;76.12
7058;BME280;3570;43.080;25.628;2023-10-08T05:56:41;-19924.06;;;16.18;72.76
7058;BME280;3570;43.080;25.628;2023-10-08T05:59:48;-19934.53;;;16.54;72.79
7058;BME280;3570;43.080;25.628;2023-10-08T06:02:42;-19930.63;;;16.41;73.50
7058;BME280;3570;43.080;25.628;2023-10-08T06:05:29;-19930.91;;;16.42;74.32
7058;BME280;3570;43.080;25.628;2023-10-08T06:08:17;-19935.13;;;16.56;72.46
7058;BME280;3570;43.080;25.628;2023-10-08T06:11:21;-19941.09;;;16.77;72.00
7058;BME280;3570;43.080;25.628;2023-10-08T06:14:21;-19939.91;;;16.73;69.07
7058;BME280;3570;43.080;25.628;2023-10-08T06:17:23;-19946.91;;;16.97;65.60
7058;BME280;3570;43.080;25.628;2023-10-08T06:20:17;-19949.81;;;17.07;61.82
7058;BME280;3570;43.080;25.628;2023-10-08T06:23:07;-19955.91;;;17.28;52.45
7058;BME280;3570;43.080;25.628;2023-10-08T06:25:55;-19968.13;;;17.70;53.60
7058;BME280;3570;43.080;25.628;2023-10-08T06:28:49;-19979.59;;;18.10;52.46
7058;BME280;3570;43.080;25.628;2023-10-08T06:31:33;-19975.66;;;17.97;49.51
7058;BME280;3570;43.080;25.628;2023-10-08T06:34:19;-19989.91;;;18.46;50.86
7058;BME280;3570;43.080;25.628;2023-10-08T06:37:05;-19994.09;;;18.60;47.54
7058;BME280;3570;43.080;25.628;2023-10-08T06:39:50;-19995.72;;;18.66;47.85
7058;BME280;3570;43.080;25.628;2023-10-08T06:42:34;-20004.25;;;18.96;44.56
7058;BME280;3570;43.080;25.628;2023-10-08T06:45:19;-20008.47;;;19.10;43.51
7058;BME280;3570;43.080;25.628;2023-10-08T06:48:06;-20013.13;;;19.26;43.77
7058;BME280;3570;43.080;25.628;2023-10-08T06:50:52;-20011.38;;;19.20;41.94
7058;BME280;3570;43.080;25.628;2023-10-08T06:53:50;-20019.66;;;19.49;41.85
7058;BME280;3570;43.080;25.628;2023-10-08T06:56:34;-20026.47;;;19.73;40.56
7058;BME280;3570;43.080;25.628;2023-10-08T06:59:18;-20024.72;;;19.66;39.34
7058;BME280;3570;43.080;25.628;2023-10-08T07:02:06;-20037.63;;;20.11;37.82
7058;BME280;3570;43.080;25.628;2023-10-08T07:04:51;-20045.44;;;20.38;38.37
7058;BME280;3570;43.080;25.628;2023-10-08T07:07:36;-20050.81;;;20.57;37.77
7058;BME280;3570;43.080;25.628;2023-10-08T07:10:23;-20061.53;;;20.94;38.35
7058;BME280;3570;43.080;25.628;2023-10-08T07:13:07;-20066.47;;;21.11;36.38
7058;BME280;3570;43.080;25.628;2023-10-08T07:15:52;-20074.28;;;21.38;36.53
7058;BME280;3570;43.080;25.628;2023-10-08T07:18:39;-20077.31;;;21.49;35.96
7058;BME280;3570;43.080;25.628;2023-10-08T07:21:25;-20082.97;;;21.69;34.93
7058;BME280;3570;43.080;25.628;2023-10-08T07:24:13;-20086.75;;;21.82;33.79
7058;BME280;3570;43.080;25.628;2023-10-08T07:27:02;-20094.56;;;22.09;33.13
7058;BME280;3570;43.080;25.628;2023-10-08T07:29:52;-20100.78;;;22.30;32.83
7058;BME280;3570;43.080;25.628;2023-10-08T07:32:39;-20098.75;;;22.23;32.60
7058;BME280;3570;43.080;25.628;2023-10-08T07:35:23;-20106.41;;;22.50;32.66
7058;BME280;3570;43.080;25.628;2023-10-08T07:38:09;-20110.91;;;22.66;32.24
7058;BME280;3570;43.080;25.628;2023-10-08T07:40:53;-20108.72;;;22.58;31.81
7058;BME280;3570;43.080;25.628;2023-10-08T07:43:39;-20110.19;;;22.63;32.00
7058;BME280;3570;43.080;25.628;2023-10-08T07:46:27;-20111.63;;;22.68;31.55
7058;BME280;3570;43.080;25.628;2023-10-08T07:49:11;-20111.03;;;22.66;31.59
7058;BME280;3570;43.080;25.628;2023-10-08T07:51:58;-20119.00;;;22.94;31.29
7058;BME280;3570;43.080;25.628;2023-10-08T07:54:43;-20112.78;;;22.72;31.17
7058;BME280;3570;43.080;25.628;2023-10-08T07:57:27;-20128.81;;;23.28;31.54
7058;BME280;3570;43.080;25.628;2023-10-08T08:00:11;-20137.38;;;23.58;31.38
7058;BME280;3570;43.080;25.628;2023-10-08T08:03:02;-20144.00;;;23.81;30.53
7058;BME280;3570;43.080;25.628;2023-10-08T08:05:49;-20142.72;;;23.76;30.49
7058;BME280;3570;43.080;25.628;2023-10-08T08:08:37;-20142.28;;;23.75;29.78
7058;BME280;3570;43.080;25.628;2023-10-08T08:11:22;-20147.75;;;23.94;30.24
7058;BME280;3570;43.080;25.628;2023-10-08T08:14:10;-20150.06;;;24.02;30.16
7058;BME280;3570;43.080;25.628;2023-10-08T08:16:54;-20157.44;;;24.27;29.48
7058;BME280;3570;43.080;25.628;2023-10-08T08:19:46;-20161.34;;;24.41;29.77
7058;BME280;3570;43.080;25.628;2023-10-08T08:22:31;-20161.91;;;24.43;29.86
7058;BME280;3570;43.080;25.628;2023-10-08T08:25:16;-20167.53;;;24.63;29.46
7058;BME280;3570;43.080;25.628;2023-10-08T08:28:07;-20167.53;;;24.63;29.11
7058;BME280;3570;43.080;25.628;2023-10-08T08:31:04;-20178.94;;;25.02;29.86
7058;BME280;3570;43.080;25.628;2023-10-08T08:33:48;-20187.91;;;25.34;29.18
7058;BME280;3570;43.080;25.628;2023-10-08T08:36:43;-20181.97;;;25.13;28.44
7058;BME280;3570;43.080;25.628;2023-10-08T08:39:35;-20188.47;;;25.36;28.91
7058;BME280;3570;43.080;25.628;2023-10-08T08:42:36;-20220.91;;;26.49;27.87
7058;BME280;3570;43.080;25.628;2023-10-08T08:45:24;-20209.81;;;26.10;28.06
7058;BME280;3570;43.080;25.628;2023-10-08T08:48:11;-20225.81;;;26.66;27.47
7058;BME280;3570;43.080;25.628;2023-10-08T08:54:37;-20211.25;;;26.15;28.21
7058;BME280;3570;43.080;25.628;2023-10-08T08:57:21;-20238.78;;;27.11;27.33
7058;BME280;3570;43.080;25.628;2023-10-08T09:00:06;-20252.16;;;27.58;26.99
7058;BME280;3570;43.080;25.628;2023-10-08T09:02:54;-20237.34;;;27.06;27.25
7058;BME280;3570;43.080;25.628;2023-10-08T09:05:39;-20233.03;;;26.91;28.28
7058;BME280;3570;43.080;25.628;2023-10-08T09:08:42;-20243.69;;;27.28;27.86
7058;BME280;3570;43.080;25.628;2023-10-08T09:11:29;-20255.06;;;27.68;27.65
7058;BME280;3570;43.080;25.628;2023-10-08T09:14:13;-20240.50;;;27.17;28.90
7058;BME280;3570;43.080;25.628;2023-10-08T09:16:59;-20263.25;;;27.97;27.80
7058;BME280;3570;43.080;25.628;2023-10-08T09:19:45;-20259.38;;;27.83;27.70
7058;BME280;3570;43.080;25.628;2023-10-08T09:22:29;-20251.88;;;27.57;28.31
7058;BME280;3570;43.080;25.628;2023-10-08T09:25:26;-20245.84;;;27.36;28.70
7058;BME280;3570;43.080;25.628;2023-10-08T09:28:12;-20233.88;;;26.94;28.67
7058;BME280;3570;43.080;25.628;2023-10-08T09:31:00;-20242.38;;;27.24;29.74
7058;BME280;3570;43.080;25.628;2023-10-08T09:33:53;-20255.63;;;27.70;28.78
7058;BME280;3570;43.080;25.628;2023-10-08T09:36:38;-20249.88;;;27.50;29.09
7058;BME280;3570;43.080;25.628;2023-10-08T09:39:27;-20268.88;;;28.16;28.36
7058;BME280;3570;43.080;25.628;2023-10-08T09:42:12;-20241.09;;;27.19;28.65
7058;BME280;3570;43.080;25.628;2023-10-08T09:44:57;-20275.47;;;28.39;28.16
7058;BME280;3570;43.080;25.628;2023-10-08T09:47:49;-20276.34;;;28.42;27.46
7058;BME280;3570;43.080;25.628;2023-10-08T09:50:39;-20289.00;;;28.87;27.60
7058;BME280;3570;43.080;25.628;2023-10-08T09:53:52;-20286.84;;;28.79;27.13
7058;BME280;3570;43.080;25.628;2023-10-08T09:56:42;-20282.97;;;28.65;27.37
7058;BME280;3570;43.080;25.628;2023-10-08T09:59:28;-20274.19;;;28.35;27.48
7058;BME280;3570;43.080;25.628;2023-10-08T10:02:13;-20278.94;;;28.51;27.37
7058;BME280;3570;43.080;25.628;2023-10-08T10:04:57;-20296.47;;;29.13;27.75
7058;BME280;3570;43.080;25.628;2023-10-08T10:07:41;-20283.25;;;28.66;28.03
7058;BME280;3570;43.080;25.628;2023-10-08T10:10:32;-20301.38;;;29.30;28.12
7058;BME280;3570;43.080;25.628;2023-10-08T10:13:18;-20299.34;;;29.23;27.36
7058;BME280;3570;43.080;25.628;2023-10-08T10:16:04;-20301.94;;;29.32;27.39
7058;BME280;3570;43.080;25.628;2023-10-08T10:18:55;-20290.72;;;28.93;27.36
7058;BME280;3570;43.080;25.628;2023-10-08T10:21:41;-20302.66;;;29.34;27.17
7058;BME280;3570;43.080;25.628;2023-10-08T10:24:38;-20305.66;;;29.45;27.36
7058;BME280;3570;43.080;25.628;2023-10-08T10:27:25;-20300.94;;;29.28;27.91
7058;BME280;3570;43.080;25.628;2023-10-08T10:30:10;-20312.28;;;29.68;26.79
7058;BME280;3570;43.080;25.628;2023-10-08T10:33:00;-20313.44;;;29.72;26.54
7058;BME280;3570;43.080;25.628;2023-10-08T10:35:51;-20306.81;;;29.49;26.82
7058;BME280;3570;43.080;25.628;2023-10-08T10:38:37;-20305.97;;;29.46;27.83
7058;BME280;3570;43.080;25.628;2023-10-08T10:41:21;-20306.25;;;29.47;27.18
7058;BME280;3570;43.080;25.628;2023-10-08T10:44:05;-20357.78;;;31.27;25.79
7058;BME280;3570;43.080;25.628;2023-10-08T10:46:52;-20349.03;;;30.97;25.86
7058;BME280;3570;43.080;25.628;2023-10-08T10:49:55;-20341.00;;;30.69;26.71
7058;BME280;3570;43.080;25.628;2023-10-08T10:53:10;-20329.50;;;30.28;26.77
7058;BME280;3570;43.080;25.628;2023-10-08T10:55:55;-20357.91;;;31.28;25.70
7058;BME280;3570;43.080;25.628;2023-10-08T10:58:53;-20358.22;;;31.29;25.82
7058;BME280;3570;43.080;25.628;2023-10-08T11:01:37;-20346.88;;;30.89;25.77
7058;BME280;3570;43.080;25.628;2023-10-08T11:04:36;-20306.97;;;29.49;27.54
7058;BME280;3570;43.080;25.628;2023-10-08T11:07:33;-20308.69;;;29.55;28.11
7058;BME280;3570;43.080;25.628;2023-10-08T11:10:18;-20304.66;;;29.41;28.04
7058;BME280;3570;43.080;25.628;2023-10-08T11:13:08;-20292.75;;;29.00;28.62
7058;BME280;3570;43.080;25.628;2023-10-08T11:16:03;-20289.44;;;28.88;28.05
7058;BME280;3570;43.080;25.628;2023-10-08T11:18:47;-20273.75;;;28.33;28.37
7058;BME280;3570;43.080;25.628;2023-10-08T11:21:51;-20257.34;;;27.76;29.54
7058;BME280;3570;43.080;25.628;2023-10-08T11:24:37;-20248.16;;;27.44;29.77
7058;BME280;3570;43.080;25.628;2023-10-08T11:27:27;-20241.38;;;27.20;30.48
7058;BME280;3570;43.080;25.628;2023-10-08T11:30:19;-20232.59;;;26.89;31.39
7058;BME280;3570;43.080;25.628;2023-10-08T11:33:03;-20227.25;;;26.71;31.89
7058;BME280;3570;43.080;25.628;2023-10-08T11:36:04;-20234.59;;;26.96;32.05
7058;BME280;3570;43.080;25.628;2023-10-08T11:38:56;-20287.56;;;28.82;29.95
7058;BME280;3570;43.080;25.628;2023-10-08T11:41:58;-20305.25;;;29.43;29.55
7058;BME280;3570;43.080;25.628;2023-10-08T11:44:46;-20319.19;;;29.92;28.72
7058;BME280;3570;43.080;25.628;2023-10-08T11:47:30;-20295.31;;;29.09;29.52
7058;BME280;3570;43.080;25.628;2023-10-08T11:50:19;-20275.63;;;28.40;30.79
7058;BME280;3570;43.080;25.628;2023-10-08T11:53:04;-20266.84;;;28.09;31.05
7058;BME280;3570;43.080;25.628;2023-10-08T11:55:52;-20283.81;;;28.68;30.15
7058;BME280;3570;43.080;25.628;2023-10-08T11:58:40;-20332.53;;;30.39;28.16
7058;BME280;3570;43.080;25.628;2023-10-08T12:01:28;-20362.81;;;31.45;26.87
7058;BME280;3570;43.080;25.628;2023-10-08T12:04:12;-20366.97;;;31.60;26.74
7058;BME280;3570;43.080;25.628;2023-10-08T12:07:00;-20343.16;;;30.76;27.22
7058;BME280;3570;43.080;25.628;2023-10-08T12:09:51;-20325.50;;;30.14;27.72
7058;BME280;3570;43.080;25.628;2023-10-08T12:12:34;-20344.16;;;30.80;27.17
7058;BME280;3570;43.080;25.628;2023-10-08T12:15:20;-20368.09;;;31.64;26.29
7058;BME280;3570;43.080;25.628;2023-10-08T12:18:05;-20338.41;;;30.59;26.94
7058;BME280;3570;43.080;25.628;2023-10-08T12:20:52;-20347.88;;;30.93;27.37
7058;BME280;3570;43.080;25.628;2023-10-08T12:23:37;-20304.09;;;29.39;29.11
7058;BME280;3570;43.080;25.628;2023-10-08T12:26:22;-20295.31;;;29.09;29.67
7058;BME280;3570;43.080;25.628;2023-10-08T12:29:06;-20326.78;;;30.19;28.16
7058;BME280;3570;43.080;25.628;2023-10-08T12:31:52;-20318.47;;;29.90;28.73
7058;BME280;3570;43.080;25.628;2023-10-08T12:34:37;-20336.97;;;30.54;28.17
7058;BME280;3570;43.080;25.628;2023-10-08T12:37:21;-20346.44;;;30.88;27.74
7058;BME280;3570;43.080;25.628;2023-10-08T12:40:07;-20390.88;;;32.44;25.46
7058;BME280;3570;43.080;25.628;2023-10-08T12:43:06;-20357.63;;;31.27;27.15
7058;BME280;3570;43.080;25.628;2023-10-08T12:45:51;-20330.38;;;30.31;28.06
7058;BME280;3570;43.080;25.628;2023-10-08T12:48:36;-20349.47;;;30.98;27.13
7058;BME280;3570;43.080;25.628;2023-10-08T12:51:23;-20338.69;;;30.60;28.05
7058;BME280;3570;43.080;25.628;2023-10-08T12:54:08;-20339.84;;;30.65;28.20
7058;BME280;3570;43.080;25.628;2023-10-08T12:56:54;-20357.19;;;31.25;27.65
7058;BME280;3570;43.080;25.628;2023-10-08T12:59:39;-20350.19;;;31.01;27.63
7058;BME280;3570;43.080;25.628;2023-10-08T13:02:27;-20349.03;;;30.97;27.50
7058;BME280;3570;43.080;25.628;2023-10-08T13:05:12;-20346.03;;;30.86;27.74
7058;BME280;3570;43.080;25.628;2023-10-08T13:07:59;-20352.47;;;31.09;27.22
7058;BME280;3570;43.080;25.628;2023-10-08T13:10:53;-20341.28;;;30.70;27.36
7058;BME280;3570;43.080;25.628;2023-10-08T13:13:37;-20352.47;;;31.09;27.23
7058;BME280;3570;43.080;25.628;2023-10-08T13:16:26;-20344.00;;;30.79;27.70
7058;BME280;3570;43.080;25.628;2023-10-08T13:19:14;-20322.47;;;30.04;28.74
7058;BME280;3570;43.080;25.628;2023-10-08T13:21:59;-20348.75;;;30.96;27.76
7058;BME280;3570;43.080;25.628;2023-10-08T13:24:43;-20361.66;;;31.41;27.25
7058;BME280;3570;43.080;25.628;2023-10-08T13:27:28;-20356.47;;;31.23;26.95
7058;BME280;3570;43.080;25.628;2023-10-08T13:30:14;-20359.34;;;31.33;26.47
7058;BME280;3570;43.080;25.628;2023-10-08T13:32:58;-20369.97;;;31.70;26.71
7058;BME280;3570;43.080;25.628;2023-10-08T13:35:43;-20329.81;;;30.29;27.39
7058;BME280;3570;43.080;25.628;2023-10-08T13:38:27;-20304.09;;;29.39;28.81
7058;BME280;3570;43.080;25.628;2023-10-08T13:41:12;-20293.03;;;29.01;29.33
7058;BME280;3570;43.080;25.628;2023-10-08T13:43:59;-20282.69;;;28.64;29.32
7058;BME280;3570;43.080;25.628;2023-10-08T13:46:49;-20254.34;;;27.65;30.71
7058;BME280;3570;43.080;25.628;2023-10-08T13:49:33;-20281.38;;;28.60;29.58
7058;BME280;3570;43.080;25.628;2023-10-08T13:52:18;-20291.00;;;28.94;28.64
7058;BME280;3570;43.080;25.628;2023-10-08T13:55:05;-20310.28;;;29.61;28.36
7058;BME280;3570;43.080;25.628;2023-10-08T13:57:53;-20302.09;;;29.32;28.50
7058;BME280;3570;43.080;25.628;2023-10-08T14:00:38;-20292.03;;;28.97;29.11
7058;BME280;3570;43.080;25.628;2023-10-08T14:03:23;-20260.66;;;27.87;30.15
7058;BME280;3570;43.080;25.628;2023-10-08T14:06:08;-20261.09;;;27.89;30.22
7058;BME280;3570;43.080;25.628;2023-10-08T14:08:53;-20272.91;;;28.30;29.87
7058;BME280;3570;43.080;25.628;2023-10-08T14:11:38;-20280.66;;;28.57;29.60
7058;BME280;3570;43.080;25.628;2023-10-08T14:14:23;-20278.22;;;28.49;30.06
7058;BME280;3570;43.080;25.628;2023-10-08T14:17:13;-20291.31;;;28.95;29.08
7058;BME280;3570;43.080;25.628;2023-10-08T14:20:20;-20280.22;;;28.56;29.87
7058;BME280;3570;43.080;25.628;2023-10-08T14:23:08;-20295.63;;;29.10;29.35
7058;BME280;3570;43.080;25.628;2023-10-08T14:25:52;-20297.19;;;29.15;29.52
7058;BME280;3570;43.080;25.628;2023-10-08T14:28:41;-20295.19;;;29.08;29.58
7058;BME280;3570;43.080;25.628;2023-10-08T14:31:28;-20300.50;;;29.27;29.52
7058;BME280;3570;43.080;25.628;2023-10-08T14:34:16;-20291.44;;;28.95;29.58
7058;BME280;3570;43.080;25.628;2023-10-08T14:37:00;-20274.03;;;28.34;30.46
7058;BME280;3570;43.080;25.628;2023-10-08T14:40:03;-20252.03;;;27.57;31.53
7058;BME280;3570;43.080;25.628;2023-10-08T14:43:06;-20253.63;;;27.63;31.57
7058;BME280;3570;43.080;25.628;2023-10-08T14:45:55;-20245.69;;;27.35;32.20
7058;BME280;3570;43.080;25.628;2023-10-08T14:48:39;-20246.13;;;27.37;32.41
7058;BME280;3570;43.080;25.628;2023-10-08T14:51:24;-20243.25;;;27.27;32.36
7058;BME280;3570;43.080;25.628;2023-10-08T14:54:10;-20241.22;;;27.20;32.40
7058;BME280;3570;43.080;25.628;2023-10-08T14:56:54;-20236.63;;;27.04;32.63